This is the latest recevied weather packets stored in our database for station/object KC1TWD. If no packets are shown the sender has not sent any weather packets the latest 1 day(s).
| Time | Temp. | Humidity | Pressure | Rain* | Wind** | Luminosity | Snow |
|---|---|---|---|---|---|---|---|
| 1777987748 | 20° C | 52% | 1008.2 hPa | 0 mm | 0.89 m/s, 288° | - | - |
| 1777987446 | 20° C | 52% | 1008.1 hPa | 0 mm | 0 m/s | - | - |
| 1777987143 | 19.44° C | 51% | 1008 hPa | 0 mm | 0.45 m/s, 168° | - | - |
| 1777986839 | 18.89° C | 54% | 1008.2 hPa | 0 mm | 0.45 m/s, 333° | - | - |
| 1777986537 | 18.89° C | 54% | 1008 hPa | 0 mm | 0 m/s | - | - |
| 1777986235 | 18.33° C | 58% | 1008.1 hPa | 0 mm | 0 m/s | - | - |
| 1777985932 | 18.33° C | 56% | 1008.1 hPa | 0 mm | 0 m/s | - | - |
| 1777985630 | 17.78° C | 57% | 1008 hPa | 0 mm | 0 m/s | - | - |
| 1777985326 | 17.78° C | 58% | 1008.1 hPa | 0 mm | 0 m/s | - | - |
| 1777985023 | 17.78° C | 58% | 1008.1 hPa | 0 mm | 0 m/s | - | - |
| 1777984719 | 17.78° C | 57% | 1008 hPa | 0 mm | 0.89 m/s, 305° | - | - |
| 1777984416 | 17.78° C | 55% | 1008.2 hPa | 0 mm | 0.89 m/s, 289° | - | - |
| 1777984112 | 17.78° C | 56% | 1008.1 hPa | 0 mm | 0.45 m/s, 313° | - | - |
| 1777983809 | 17.78° C | 57% | 1008.2 hPa | 0 mm | 0.45 m/s, 120° | - | - |
| 1777983506 | 17.22° C | 56% | 1008.5 hPa | 0 mm | 0.89 m/s, 300° | - | - |
| 1777983203 | 16.67° C | 58% | 1008.5 hPa | 0 mm | 1.34 m/s, 306° | - | - |
| 1777982899 | 16.11° C | 63% | 1008.4 hPa | 0 mm | 0 m/s | - | - |
| 1777982595 | 15.56° C | 63% | 1008.6 hPa | 0 mm | 0 m/s | - | - |
| 1777982294 | 15° C | 70% | 1008.5 hPa | 0 mm | 0 m/s | - | - |
| 1777981991 | 14.44° C | 74% | 1008.5 hPa | 0 mm | 0 m/s | - | - |
| 1777981689 | 13.89° C | 78% | 1008.4 hPa | 0 mm | 0 m/s | - | - |
| 1777981385 | 13.33° C | 79% | 1008.5 hPa | 0 mm | 0 m/s | - | - |
| 1777981082 | 12.78° C | 80% | 1008.3 hPa | 0 mm | 0 m/s | - | - |
| 1777980778 | 12.78° C | 81% | 1008.2 hPa | 0 mm | 0 m/s | - | - |
| 1777980474 | 12.22° C | 81% | 1008.6 hPa | 0 mm | 0 m/s | - | - |
* Rain latest hour (hover to see other rain measurements)
** Current wind speed in m/s (hover to see current wind gust speed)